createdAt,value
2023-05-20T00:01:20.597Z,97.2
2023-05-20T00:03:46.778Z,97.2
2023-05-20T00:06:12.714Z,97.4
2023-05-20T00:08:38.821Z,97.5
2023-05-20T00:11:04.840Z,97.3
2023-05-20T00:13:31.012Z,97.5
2023-05-20T00:15:57.184Z,97.3
2023-05-20T00:18:22.285Z,97.2
2023-05-20T00:20:48.385Z,97
2023-05-20T00:23:14.486Z,97.1
2023-05-20T00:25:40.481Z,97.1
2023-05-20T00:28:06.655Z,97.2
2023-05-20T00:30:32.797Z,97.4
2023-05-20T00:32:58.902Z,97.5
2023-05-20T00:35:24.898Z,97.8
2023-05-20T00:37:51.077Z,97.6
2023-05-20T00:40:17.146Z,97.3
2023-05-20T00:42:43.104Z,97.5
2023-05-20T00:45:09.194Z,97.5
2023-05-20T00:47:35.296Z,97.5
2023-05-20T00:50:00.408Z,97.5
2023-05-20T00:52:26.505Z,97.6
2023-05-20T00:54:52.639Z,97.6
2023-05-20T00:57:18.686Z,97.6
2023-05-20T00:59:44.772Z,97.4
2023-05-20T01:02:10.886Z,97.6
2023-05-20T01:04:36.973Z,97.5
2023-05-20T01:07:03.061Z,97.6
2023-05-20T01:09:29.233Z,97.8
2023-05-20T01:11:55.379Z,97.7
2023-05-20T01:14:21.431Z,97.9
2023-05-20T01:16:47.490Z,97.9
2023-05-20T01:19:13.617Z,97.8
2023-05-20T01:21:38.786Z,97.7
2023-05-20T01:24:04.822Z,97.8
2023-05-20T01:26:31.021Z,97.7
2023-05-20T01:28:57.109Z,97.8
2023-05-20T01:31:23.204Z,98.2
2023-05-20T01:33:49.269Z,98.7
2023-05-20T01:36:15.515Z,98.8
2023-05-20T01:38:41.471Z,98.9
2023-05-20T01:41:07.606Z,99.2
2023-05-20T01:43:33.649Z,99.3
2023-05-20T01:45:59.785Z,99.5
2023-05-20T01:48:25.973Z,99.7
2023-05-20T01:50:51.955Z,100
2023-05-20T01:53:17.087Z,99.9
2023-05-20T01:55:42.061Z,100
2023-05-20T01:58:08.251Z,100
2023-05-20T02:00:34.343Z,100
2023-05-20T02:03:00.339Z,100
2023-05-20T02:05:26.433Z,100
2023-05-20T02:07:52.680Z,100
2023-05-20T02:10:18.808Z,100
2023-05-20T02:12:44.810Z,100
2023-05-20T02:15:10.911Z,100
2023-05-20T02:17:37.024Z,100
2023-05-20T02:20:03.174Z,100
2023-05-20T02:22:29.221Z,100
2023-05-20T02:24:55.357Z,100
2023-05-20T02:27:20.496Z,100
2023-05-20T02:29:46.560Z,100
2023-05-20T02:32:12.698Z,100
2023-05-20T02:34:38.662Z,100
2023-05-20T02:37:04.758Z,100
2023-05-20T02:39:30.917Z,100
2023-05-20T02:41:57.025Z,100
2023-05-20T02:44:23.109Z,100
2023-05-20T02:46:49.188Z,100
2023-05-20T02:49:15.309Z,100
2023-05-20T02:51:41.347Z,100
2023-05-20T02:54:07.505Z,100
2023-05-20T02:56:33.597Z,100
2023-05-20T02:58:58.540Z,100
2023-05-20T03:01:24.621Z,100
2023-05-20T03:03:50.775Z,100
2023-05-20T03:06:17.191Z,100
2023-05-20T03:08:43.143Z,100
2023-05-20T03:11:09.136Z,100
2023-05-20T03:13:35.296Z,100
2023-05-20T03:16:01.210Z,100
2023-05-20T03:18:27.450Z,100
2023-05-20T03:20:53.376Z,100
2023-05-20T03:23:19.624Z,100
2023-05-20T03:25:45.817Z,100
2023-05-20T03:28:11.796Z,100
2023-05-20T03:30:37.343Z,100
2023-05-20T03:33:02.903Z,100
2023-05-20T03:35:29.017Z,100
2023-05-20T03:37:55.124Z,100
2023-05-20T03:40:21.266Z,100
2023-05-20T03:42:47.288Z,100
2023-05-20T03:45:13.479Z,100
2023-05-20T03:47:39.606Z,100
2023-05-20T03:50:05.640Z,100
2023-05-20T03:52:31.785Z,100
2023-05-20T03:54:57.905Z,100
2023-05-20T03:57:23.975Z,100
2023-05-20T03:59:49.952Z,100
2023-05-20T04:02:15.191Z,100
2023-05-20T04:04:41.120Z,100
2023-05-20T04:07:07.377Z,100
2023-05-20T04:09:33.476Z,100
2023-05-20T04:11:59.523Z,100
2023-05-20T04:14:25.690Z,100
2023-05-20T04:16:51.794Z,100
2023-05-20T04:19:17.857Z,100
2023-05-20T04:21:43.955Z,100
2023-05-20T04:24:09.930Z,100
2023-05-20T04:26:36.133Z,100
2023-05-20T04:29:02.214Z,100
2023-05-20T04:31:28.158Z,100
2023-05-20T04:33:53.279Z,100
2023-05-20T04:36:19.387Z,100
2023-05-20T04:38:45.460Z,100
2023-05-20T04:41:11.553Z,99.5
2023-05-20T04:43:37.672Z,99.2
2023-05-20T04:46:03.758Z,99
2023-05-20T04:48:29.840Z,99
2023-05-20T04:50:55.937Z,99
2023-05-20T04:53:22.041Z,99.1
2023-05-20T04:55:48.129Z,98.7
2023-05-20T04:58:14.243Z,98
2023-05-20T05:00:40.313Z,97.6
2023-05-20T05:03:06.430Z,96.7
2023-05-20T05:05:31.518Z,96.4
2023-05-20T05:07:57.625Z,96
2023-05-20T05:10:23.709Z,95.3
2023-05-20T05:12:49.826Z,94.9
2023-05-20T05:15:15.925Z,94.6
2023-05-20T05:17:42.016Z,94.7
2023-05-20T05:20:08.087Z,94.1
2023-05-20T05:22:34.200Z,93.8
2023-05-20T05:25:00.293Z,93.7
2023-05-20T05:27:26.390Z,93.4
2023-05-20T05:29:52.471Z,93
2023-05-20T05:32:18.576Z,92.8
2023-05-20T05:34:44.741Z,92.7
2023-05-20T05:37:09.774Z,92.1
2023-05-20T05:39:35.885Z,91.5
2023-05-20T05:42:01.967Z,90.7
2023-05-20T05:44:28.070Z,90.5
2023-05-20T05:46:54.161Z,89.6
2023-05-20T05:49:20.246Z,89.3
2023-05-20T05:51:46.348Z,88.9
2023-05-20T05:54:12.727Z,88.7
2023-05-20T05:56:38.537Z,88.8
2023-05-20T05:59:04.648Z,89.1
2023-05-20T06:01:30.734Z,89
2023-05-20T06:03:56.837Z,88.7
2023-05-20T06:06:22.920Z,88.3
2023-05-20T06:08:48.010Z,88.4
2023-05-20T06:11:14.122Z,87.9
2023-05-20T06:13:40.222Z,87.1
2023-05-20T06:16:06.304Z,86.4
2023-05-20T06:18:32.408Z,86.1
2023-05-20T06:20:58.495Z,86.4
2023-05-20T06:23:24.598Z,85.7
2023-05-20T06:25:50.684Z,85.2
2023-05-20T06:28:16.775Z,83.9
2023-05-20T06:30:42.883Z,83.5
2023-05-20T06:33:08.976Z,83.5
2023-05-20T06:35:35.058Z,83.8
2023-05-20T06:38:01.153Z,83.4
2023-05-20T06:40:26.278Z,83.2
2023-05-20T06:42:52.411Z,82.9
2023-05-20T06:45:18.456Z,82.6
2023-05-20T06:47:44.564Z,82.3
2023-05-20T06:50:10.646Z,81.7
2023-05-20T06:52:36.761Z,80.9
2023-05-20T06:55:02.835Z,80.4
2023-05-20T06:57:28.933Z,80
2023-05-20T06:59:55.044Z,79.9
2023-05-20T07:02:21.123Z,79.4
2023-05-20T07:04:47.219Z,80
2023-05-20T07:07:13.318Z,80
2023-05-20T07:09:39.414Z,79.3
2023-05-20T07:12:04.516Z,79.5
2023-05-20T07:14:30.601Z,78.3
2023-05-20T07:16:56.695Z,78.4
2023-05-20T07:19:22.801Z,78
2023-05-20T07:21:48.894Z,78
2023-05-20T07:24:14.986Z,77.8
2023-05-20T07:26:41.095Z,78.2
2023-05-20T07:29:07.183Z,78.4
2023-05-20T07:31:33.275Z,78.7
2023-05-20T07:33:59.370Z,78.6
2023-05-20T07:36:25.534Z,78.5
2023-05-20T07:38:51.555Z,79
2023-05-20T07:41:17.654Z,78.2
2023-05-20T07:43:42.760Z,78
2023-05-20T07:46:08.856Z,77.5
2023-05-20T07:48:34.956Z,77.4
2023-05-20T07:51:01.057Z,77.6
2023-05-20T07:53:27.153Z,76.9
2023-05-20T07:55:53.240Z,76.3
2023-05-20T07:58:19.324Z,76.6
2023-05-20T08:00:45.419Z,76.3
2023-05-20T08:03:11.512Z,75.5
2023-05-20T08:05:37.613Z,75.3
2023-05-20T08:08:03.709Z,74.8
2023-05-20T08:10:29.828Z,73.6
2023-05-20T08:12:55.898Z,73.8
2023-05-20T08:15:21.003Z,72.9
2023-05-20T08:17:47.106Z,72.7
2023-05-20T08:20:13.192Z,72.7
2023-05-20T08:22:39.304Z,73.3
2023-05-20T08:25:05.416Z,73.4
2023-05-20T08:27:31.499Z,73.8
2023-05-20T08:29:57.591Z,74
2023-05-20T08:32:23.699Z,73.6
2023-05-20T08:34:49.762Z,73.8
2023-05-20T08:37:15.888Z,74
2023-05-20T08:39:41.966Z,72.9
2023-05-20T08:42:08.065Z,72.9
2023-05-20T08:44:34.156Z,73
2023-05-20T08:46:59.270Z,71.7
2023-05-20T08:49:25.373Z,72.9
2023-05-20T08:51:51.453Z,73.1
2023-05-20T08:54:17.546Z,73.2
2023-05-20T08:56:43.649Z,73.3
2023-05-20T08:59:09.733Z,73.6
2023-05-20T09:01:35.838Z,73.5
2023-05-20T09:04:01.922Z,73.3
2023-05-20T09:06:28.030Z,72.3
2023-05-20T09:08:54.115Z,71.7
2023-05-20T09:11:20.212Z,72.2
2023-05-20T09:13:46.330Z,72.3
2023-05-20T09:16:12.487Z,72.6
2023-05-20T09:18:37.516Z,72.6
2023-05-20T09:21:04.595Z,70.9
2023-05-20T09:23:29.702Z,70.9
2023-05-20T09:25:55.797Z,69.5
2023-05-20T09:28:21.891Z,69
2023-05-20T09:30:47.981Z,68.6
2023-05-20T09:35:40.181Z,68
2023-05-20T09:38:06.270Z,66.9
2023-05-20T09:40:32.361Z,66.4
2023-05-20T09:42:58.452Z,66.9
2023-05-20T09:45:24.541Z,66.7
2023-05-20T09:47:50.642Z,65.7
2023-05-20T09:50:15.762Z,66.7
2023-05-20T09:52:41.843Z,66.2
2023-05-20T09:55:07.942Z,66.5
2023-05-20T09:57:34.261Z,66.8
2023-05-20T10:00:00.118Z,65.3
2023-05-20T10:02:26.221Z,64.1
2023-05-20T10:07:17.431Z,66
2023-05-20T10:09:42.558Z,65
2023-05-20T10:12:08.645Z,64.3
2023-05-20T10:14:34.752Z,64.3
2023-05-20T10:17:00.858Z,63.9
2023-05-20T10:19:26.935Z,63.8
2023-05-20T10:21:53.034Z,62.2
2023-05-20T10:24:19.130Z,61.9
2023-05-20T10:26:45.229Z,61.8
2023-05-20T10:29:11.309Z,59.8
2023-05-20T10:31:37.422Z,60.4
2023-05-20T10:34:03.513Z,60.3
2023-05-20T10:36:29.602Z,60
2023-05-20T10:38:55.703Z,60.5
2023-05-20T10:41:20.876Z,60.2
2023-05-20T10:43:47.182Z,59.6
2023-05-20T10:46:13.061Z,60.2
2023-05-20T10:48:39.099Z,59
2023-05-20T10:51:05.179Z,59.3
2023-05-20T10:53:31.373Z,58.2
2023-05-20T10:55:57.363Z,57.5
2023-05-20T10:58:23.505Z,58.5
2023-05-20T11:00:49.570Z,58.3
2023-05-20T11:03:15.657Z,58.5
2023-05-20T11:05:41.781Z,57.6
2023-05-20T11:08:07.966Z,56.8
2023-05-20T11:13:00.070Z,54.8
2023-05-20T11:15:25.149Z,55.3
2023-05-20T11:17:51.335Z,55.7
2023-05-20T11:20:17.333Z,56.2
2023-05-20T11:22:43.445Z,55.3
2023-05-20T11:25:09.562Z,56
2023-05-20T11:27:35.793Z,56.5
2023-05-20T11:30:01.836Z,55.8
2023-05-20T11:32:27.924Z,56.3
2023-05-20T11:34:54.050Z,55.8
2023-05-20T11:37:20.032Z,56.3
2023-05-20T11:39:46.180Z,56
2023-05-20T11:42:12.274Z,56.9
2023-05-20T11:44:38.453Z,55.6
2023-05-20T11:47:03.563Z,55.5
2023-05-20T11:49:29.712Z,55.7
2023-05-20T11:51:55.763Z,55
2023-05-20T11:54:21.779Z,54
2023-05-20T11:56:47.779Z,54.7
2023-05-20T11:59:13.984Z,54.9
2023-05-20T12:01:39.975Z,54.1
2023-05-20T12:04:06.054Z,54.7
2023-05-20T12:06:32.168Z,55.4
2023-05-20T12:08:58.242Z,54.5
2023-05-20T12:11:24.341Z,53.7
2023-05-20T12:13:50.526Z,54.2
2023-05-20T12:16:16.547Z,54
2023-05-20T12:18:41.747Z,53.3
2023-05-20T12:21:07.879Z,52.9
2023-05-20T12:23:33.971Z,53.3
2023-05-20T12:26:00.101Z,53.6
2023-05-20T12:28:26.295Z,53.7
2023-05-20T12:30:52.213Z,52.7
2023-05-20T12:33:18.268Z,52.9
2023-05-20T12:35:44.400Z,52.6
2023-05-20T12:38:10.460Z,53.4
2023-05-20T12:40:36.592Z,53.3
2023-05-20T12:43:02.593Z,53.2
2023-05-20T12:45:28.687Z,53.5
2023-05-20T12:47:54.906Z,53.3
2023-05-20T12:50:19.864Z,53.6
2023-05-20T12:52:46.169Z,52.5
2023-05-20T12:55:12.069Z,50.3
2023-05-20T12:57:38.322Z,47.5
2023-05-20T13:00:04.385Z,47.3
2023-05-20T13:02:30.521Z,47
2023-05-20T13:04:56.610Z,46.9
2023-05-20T13:07:22.558Z,48.3
2023-05-20T13:09:48.774Z,48.8
2023-05-20T13:12:14.847Z,46.5
2023-05-20T13:14:40.969Z,47.4
2023-05-20T13:17:06.932Z,47.9
2023-05-20T13:19:33.211Z,49.2
2023-05-20T13:21:58.136Z,49.1
2023-05-20T13:24:24.253Z,48.9
2023-05-20T13:26:50.336Z,49.7
2023-05-20T13:29:16.445Z,49.2
2023-05-20T13:31:42.656Z,46.1
2023-05-20T13:34:08.615Z,47.2
2023-05-20T13:36:34.786Z,46
2023-05-20T13:39:00.820Z,46.9
2023-05-20T13:41:27.073Z,48
2023-05-20T13:43:53.101Z,49.8
2023-05-20T13:46:19.086Z,50.5
2023-05-20T13:48:45.197Z,51.4
2023-05-20T13:51:11.437Z,51.9
2023-05-20T13:53:36.542Z,52.2
2023-05-20T13:56:02.513Z,52
2023-05-20T13:58:28.728Z,50.9
2023-05-20T14:00:54.762Z,49.7
2023-05-20T14:03:20.787Z,49.3
2023-05-20T14:05:47.019Z,50.2
2023-05-20T14:08:13.105Z,51.3
2023-05-20T14:10:39.125Z,50.5
2023-05-20T14:13:05.216Z,50.9
2023-05-20T14:15:31.363Z,49
2023-05-20T14:17:57.508Z,48.1
2023-05-20T14:20:23.485Z,46.2
2023-05-20T14:22:49.762Z,45.5
2023-05-20T14:25:14.640Z,44.4
2023-05-20T14:27:40.742Z,45.4
2023-05-20T14:30:06.844Z,44.7
2023-05-20T14:32:33.119Z,44
2023-05-20T14:34:59.109Z,43.3
2023-05-20T14:37:25.137Z,41.6
2023-05-20T14:39:51.264Z,43
2023-05-20T14:42:17.473Z,45
2023-05-20T14:44:43.407Z,45.2
2023-05-20T14:47:09.580Z,45
2023-05-20T14:49:35.598Z,46.5
2023-05-20T14:52:01.703Z,47.9
2023-05-20T14:54:27.803Z,46.8
2023-05-20T14:56:52.987Z,47.2
2023-05-20T14:59:19.027Z,47.7
2023-05-20T15:01:45.129Z,47.7
2023-05-20T15:04:11.303Z,47.2
2023-05-20T15:06:37.442Z,45.6
2023-05-20T15:09:03.461Z,44.2
2023-05-20T15:11:29.581Z,44.7
2023-05-20T15:13:55.801Z,46.6
2023-05-20T15:16:21.783Z,45.4
2023-05-20T15:18:47.780Z,45.1
2023-05-20T15:21:13.972Z,46.6
2023-05-20T15:23:40.015Z,48.3
2023-05-20T15:26:06.181Z,48.5
2023-05-20T15:28:31.184Z,46.4
2023-05-20T15:30:57.266Z,45.8
2023-05-20T15:33:23.533Z,44.5
2023-05-20T15:35:49.638Z,44.4
2023-05-20T15:38:15.708Z,43.8
2023-05-20T15:40:41.653Z,43.9
2023-05-20T15:43:07.739Z,43.6
2023-05-20T15:45:33.841Z,43.9
2023-05-20T15:47:59.936Z,45
2023-05-20T15:50:26.017Z,45.2
2023-05-20T15:52:52.145Z,45.1
2023-05-20T15:55:18.237Z,44.6
2023-05-20T15:57:44.414Z,46.1
2023-05-20T16:00:09.418Z,46.8
2023-05-20T16:02:35.514Z,46.7
2023-05-20T16:05:01.630Z,46.6
2023-05-20T16:07:27.729Z,47.9
2023-05-20T16:09:53.830Z,47.4
2023-05-20T16:12:19.903Z,47.9
2023-05-20T16:14:46.011Z,48.9
2023-05-20T16:17:12.106Z,46.5
2023-05-20T16:19:38.189Z,45.4
2023-05-20T16:24:30.418Z,43.1
2023-05-20T16:26:56.480Z,41.4
2023-05-20T16:29:22.583Z,42.3
2023-05-20T16:31:47.695Z,42.9
2023-05-20T16:34:13.790Z,42.5
2023-05-20T16:36:39.875Z,42.6
2023-05-20T16:39:05.958Z,43
2023-05-20T16:41:32.073Z,43
2023-05-20T16:43:58.189Z,43.5
2023-05-20T16:46:24.254Z,44.7
2023-05-20T16:48:50.348Z,45.3
2023-05-20T16:51:16.450Z,46.1
2023-05-20T16:53:42.545Z,46.6
2023-05-20T16:56:08.641Z,46.1
2023-05-20T16:58:34.746Z,46.1
2023-05-20T17:01:00.826Z,46.6
2023-05-20T17:03:25.933Z,47
2023-05-20T17:05:52.040Z,46.8
2023-05-20T17:08:18.136Z,47.8
2023-05-20T17:10:44.247Z,47.9
2023-05-20T17:13:10.335Z,48.3
2023-05-20T17:15:36.430Z,49
2023-05-20T17:18:02.504Z,49.3
2023-05-20T17:20:28.622Z,49.1
2023-05-20T17:22:54.704Z,49.4
2023-05-20T17:25:20.814Z,50.1
2023-05-20T17:27:46.887Z,50.2
2023-05-20T17:30:13.023Z,51.3
2023-05-20T17:32:39.089Z,51.1
2023-05-20T17:35:04.193Z,51.7
2023-05-20T17:37:30.283Z,51.7
2023-05-20T17:39:56.391Z,52.2
2023-05-20T17:42:22.497Z,52.6
2023-05-20T17:44:48.583Z,52.6
2023-05-20T17:47:14.675Z,53.5
2023-05-20T17:49:40.768Z,53.4
2023-05-20T17:52:06.867Z,53.5
2023-05-20T17:54:32.953Z,54.3
2023-05-20T17:56:59.051Z,54.4
2023-05-20T17:59:25.132Z,54.5
2023-05-20T18:01:51.233Z,54.6
2023-05-20T18:04:17.337Z,54.4
2023-05-20T18:06:42.454Z,54.7
2023-05-20T18:09:08.540Z,55.5
2023-05-20T18:11:34.635Z,55.4
2023-05-20T18:14:00.720Z,55.4
2023-05-20T18:16:26.837Z,55.8
2023-05-20T18:18:51.936Z,55.5
2023-05-20T18:21:18.044Z,57.9
2023-05-20T18:23:44.140Z,58.9
2023-05-20T18:28:36.326Z,64.3
2023-05-20T18:31:02.468Z,65.8
2023-05-20T18:33:28.573Z,67
2023-05-20T18:38:20.746Z,69.7
2023-05-20T18:40:46.851Z,71
2023-05-20T18:43:12.943Z,71.9
2023-05-20T18:45:39.000Z,71.8
2023-05-20T18:48:05.143Z,73.4
2023-05-20T18:50:31.229Z,73.9
2023-05-20T18:52:56.346Z,72.6
2023-05-20T18:55:22.432Z,72.2
2023-05-20T18:57:48.471Z,73.4
2023-05-20T19:00:14.586Z,73.5
2023-05-20T19:02:40.657Z,74.9
2023-05-20T19:05:06.782Z,73.8
2023-05-20T19:07:32.860Z,73.9
2023-05-20T19:09:58.952Z,74.3
2023-05-20T19:12:25.036Z,75.1
2023-05-20T19:14:51.144Z,75
2023-05-20T19:17:17.240Z,74.7
2023-05-20T19:19:43.331Z,75.1
2023-05-20T19:22:09.424Z,75.6
2023-05-20T19:24:34.546Z,75.7
2023-05-20T19:27:00.646Z,75.5
2023-05-20T19:29:26.738Z,76.7
2023-05-20T19:31:52.829Z,76.7
2023-05-20T19:34:18.930Z,77.5
2023-05-20T19:36:45.008Z,77.3
2023-05-20T19:39:11.108Z,77.6
2023-05-20T19:41:37.193Z,77.9
2023-05-20T19:44:03.297Z,78.1
2023-05-20T19:46:29.389Z,78.3
2023-05-20T19:48:55.487Z,79.1
2023-05-20T19:51:21.588Z,79.4
2023-05-20T19:53:47.664Z,79.6
2023-05-20T19:56:12.777Z,80.2
2023-05-20T19:58:38.870Z,81
2023-05-20T20:01:05.001Z,81
2023-05-20T20:03:31.064Z,81.3
2023-05-20T20:05:57.155Z,81.2
2023-05-20T20:08:23.264Z,82.1
2023-05-20T20:10:49.366Z,82.1
2023-05-20T20:13:15.451Z,81.6
2023-05-20T20:15:41.542Z,82.3
2023-05-20T20:18:07.642Z,82.6
2023-05-20T20:20:33.720Z,82.6
2023-05-20T20:22:59.835Z,83
2023-05-20T20:25:25.924Z,83
2023-05-20T20:27:51.035Z,83.9
2023-05-20T20:30:17.140Z,83.7
2023-05-20T20:32:43.218Z,83.6
2023-05-20T20:35:09.307Z,84
2023-05-20T20:37:35.410Z,83.9
2023-05-20T20:40:01.506Z,83.8
2023-05-20T20:42:27.587Z,84.1
2023-05-20T20:44:53.693Z,83.9
2023-05-20T20:47:19.790Z,84.3
2023-05-20T20:49:45.892Z,84.9
2023-05-20T20:52:11.985Z,84.8
2023-05-20T20:54:38.114Z,85.5
2023-05-20T20:57:04.173Z,85.7
2023-05-20T20:59:29.299Z,85.2
2023-05-20T21:01:55.371Z,85.6
2023-05-20T21:04:21.474Z,86.2
2023-05-20T21:06:47.568Z,86.3
2023-05-20T21:09:13.672Z,86.2
2023-05-20T21:11:39.761Z,86
2023-05-20T21:14:05.853Z,86.3
2023-05-20T21:16:31.938Z,86.8
2023-05-20T21:18:58.054Z,87.6
2023-05-20T21:21:24.136Z,87.7
2023-05-20T21:23:50.237Z,87.4
2023-05-20T21:26:16.316Z,87.2
2023-05-20T21:28:42.425Z,87.2
2023-05-20T21:31:07.528Z,87.6
2023-05-20T21:33:33.614Z,87.9
2023-05-20T21:35:59.715Z,87.9
2023-05-20T21:38:25.806Z,88.4
2023-05-20T21:40:51.909Z,88.4
2023-05-20T21:43:18.029Z,88.2
2023-05-20T21:45:44.113Z,88.1
2023-05-20T21:48:10.218Z,88.4
2023-05-20T21:50:36.292Z,88
2023-05-20T21:53:02.399Z,88.8
2023-05-20T21:55:28.492Z,88.7
2023-05-20T21:57:54.577Z,88.8
2023-05-20T22:00:20.682Z,88.7
2023-05-20T22:02:45.771Z,89.1
2023-05-20T22:05:11.880Z,89.2
2023-05-20T22:07:37.979Z,88.8
2023-05-20T22:10:04.051Z,88.8
2023-05-20T22:12:30.151Z,88.9
2023-05-20T22:14:56.254Z,89.1
2023-05-20T22:17:22.342Z,89.2
2023-05-20T22:19:48.440Z,89.6
2023-05-20T22:22:14.552Z,89.6
2023-05-20T22:24:40.638Z,89.8
2023-05-20T22:27:06.738Z,89.9
2023-05-20T22:29:32.811Z,89.5
2023-05-20T22:31:58.913Z,90.2
2023-05-20T22:34:24.024Z,89.9
2023-05-20T22:36:50.134Z,90.3
2023-05-20T22:39:16.233Z,90.5
2023-05-20T22:41:42.321Z,90.7
2023-05-20T22:44:08.403Z,90.8
2023-05-20T22:46:34.496Z,90.8
2023-05-20T22:49:00.595Z,91.3
2023-05-20T22:51:26.689Z,91.4
2023-05-20T22:53:52.796Z,91.5
2023-05-20T22:56:18.880Z,91.8
2023-05-20T22:58:44.959Z,91.8
2023-05-20T23:01:11.065Z,92.3
2023-05-20T23:03:37.162Z,92.3
2023-05-20T23:06:02.281Z,92.5
2023-05-20T23:08:28.373Z,92.5
2023-05-20T23:10:54.459Z,92.5
2023-05-20T23:13:20.563Z,92.5
2023-05-20T23:15:46.707Z,92.6
2023-05-20T23:18:12.746Z,92.4
2023-05-20T23:20:38.835Z,92.7
2023-05-20T23:23:04.947Z,92.8
2023-05-20T23:25:31.027Z,93.1
2023-05-20T23:27:57.112Z,92.9
2023-05-20T23:30:23.220Z,93.1
2023-05-20T23:32:49.309Z,93.1
2023-05-20T23:35:15.409Z,93
2023-05-20T23:37:40.516Z,93.2
2023-05-20T23:40:06.607Z,93.5
2023-05-20T23:42:32.692Z,93.9
2023-05-20T23:44:58.802Z,94
2023-05-20T23:47:24.884Z,94
2023-05-20T23:49:50.981Z,93.9
2023-05-20T23:52:17.087Z,94.3
2023-05-20T23:54:43.175Z,94.2
2023-05-20T23:57:09.264Z,94.2
2023-05-20T23:59:35.354Z,94.3
